Time;durP1;ratioP1;P1;durP2;ratioP2;P2;SDS_P1;SDS_P2;PMS_P1;PMS_P2;Temp;Humidity;BMP_temperature;BMP_pressure;BME280_temperature;BME280_humidity;BME280_pressure;Samples;Min_cycle;Max_cycle;Signal;HPM_P1;HPM_P2
2022/08/06 00:02:15;;;;;;;;;;;;;;;24.63;100.00;98174.69;5139871;27;19935;-65
2022/08/06 00:04:41;;;;;;;;;;;;;;;24.46;100.00;98180.44;5140348;27;19924;-64
2022/08/06 00:07:07;;;;;;;;;;;;;;;25.29;100.00;98171.38;5143075;27;19923;-66
2022/08/06 00:09:34;;;;;;;;;;;;;;;24.44;100.00;98177.28;5143800;27;19928;-64
2022/08/06 00:12:01;;;;;;;;;;;;;;;24.38;100.00;98178.66;5140194;27;19991;-64
2022/08/06 00:14:28;;;;;;;;;;;;;;;24.66;100.00;98176.72;5140398;27;19923;-64
2022/08/06 00:16:54;;;;;;;;;;;;;;;24.58;100.00;98166.75;5140780;27;19931;-64
2022/08/06 00:19:22;;;;;;;;;;;;;;;24.79;100.00;98176.69;5143553;27;20423;-64
2022/08/06 00:21:49;;;;;;;;;;;;;;;25.34;100.00;98179.34;5143528;27;19935;-64
2022/08/06 00:24:15;;;;;;;;;;;;;;;25.64;100.00;98185.97;5143784;27;19987;-64
2022/08/06 00:26:41;;;;;;;;;;;;;;;26.37;100.00;98184.50;5143578;27;19924;-64
2022/08/06 00:29:08;;;;;;;;;;;;;;;25.76;100.00;98188.59;5141048;27;19987;-64
2022/08/06 00:31:34;;;;;;;;;;;;;;;25.61;100.00;98183.94;5139947;27;19931;-64
2022/08/06 00:34:02;;;;;;;;;;;;;;;25.86;100.00;98194.66;5141522;27;19923;-64
2022/08/06 00:36:31;;;;;;;;;;;;;;;26.76;99.94;98197.00;5143212;27;19919;-64
2022/08/06 00:38:57;;;;;;;;;;;;;;;26.20;100.00;98204.84;5142141;27;19927;-64
2022/08/06 00:41:24;;;;;;;;;;;;;;;26.51;100.00;98207.47;5139952;27;19968;-64
2022/08/06 00:43:50;;;;;;;;;;;;;;;26.62;100.00;98205.75;5139592;27;20002;-64
2022/08/06 00:46:16;;;;;;;;;;;;;;;27.32;94.53;98191.81;5121367;28;19950;-64
2022/08/06 00:48:43;;;;;;;;;;;;;;;26.63;100.00;98198.31;5139837;27;19963;-64
2022/08/06 00:51:09;;;;;;;;;;;;;;;27.02;99.08;98199.88;5142520;27;19963;-64
2022/08/06 00:53:37;;;;;;;;;;;;;;;28.15;90.51;98210.03;5143014;27;19969;-64
2022/08/06 00:56:04;;;;;;;;;;;;;;;28.43;89.00;98201.38;5141023;27;19962;-64
2022/08/06 00:58:30;;;;;;;;;;;;;;;28.60;85.90;98200.81;5139238;27;19924;-64
2022/08/06 01:00:57;;;;;;;;;;;;;;;27.63;92.55;98202.56;5140432;27;19923;-64
2022/08/06 01:03:23;;;;;;;;;;;;;;;28.15;89.22;98211.97;5142960;27;19933;-64
2022/08/06 01:05:50;;;;;;;;;;;;;;;27.77;88.94;98216.50;5143080;27;19928;-65
2022/08/06 01:08:17;;;;;;;;;;;;;;;26.96;92.58;98222.47;5139311;27;20093;-65
2022/08/06 01:10:44;;;;;;;;;;;;;;;27.07;91.28;98223.47;5139212;27;19946;-64
2022/08/06 01:13:11;;;;;;;;;;;;;;;26.86;95.59;98228.56;5140066;27;20272;-65
2022/08/06 01:15:38;;;;;;;;;;;;;;;24.91;100.00;98220.38;5142452;27;19930;-66
2022/08/06 01:18:08;;;;;;;;;;;;;;;24.01;100.00;98231.72;5140661;27;19923;-65
2022/08/06 01:20:48;;;;;;;;;;;;;;;24.09;100.00;98233.50;5139104;27;19931;-65
2022/08/06 01:23:29;;;;;;;;;;;;;;;24.45;100.00;98227.22;5142794;27;19934;-64
2022/08/06 01:26:23;;;;;;;;;;;;;;;25.37;100.00;98235.25;5141940;27;19924;-64
2022/08/06 01:28:53;;;;;;;;;;;;;;;26.07;100.00;98239.72;5139172;27;19954;-65
2022/08/06 01:31:20;;;;;;;;;;;;;;;26.63;98.72;98253.91;5142467;27;20010;-65
2022/08/06 01:33:51;;;;;;;;;;;;;;;26.36;99.04;98254.88;5142437;27;19979;-64
2022/08/06 01:36:19;;;;;;;;;;;;;;;26.63;93.96;98262.13;5130933;27;19964;-65
2022/08/06 01:38:48;;;;;;;;;;;;;;;26.35;96.60;98260.72;5139137;27;19995;-64
2022/08/06 01:41:38;;;;;;;;;;;;;;;26.57;94.95;98262.75;5142637;27;19931;-65
2022/08/06 01:44:07;;;;;;;;;;;;;;;25.81;93.95;98271.56;5139743;28;19920;-65
2022/08/06 01:46:34;;;;;;;;;;;;;;;26.18;93.96;98259.19;5142392;28;20577;-64
2022/08/06 01:49:01;;;;;;;;;;;;;;;24.45;100.00;98266.22;5141157;28;20616;-64
2022/08/06 01:51:29;;;;;;;;;;;;;;;24.85;100.00;98268.97;5138983;28;19943;-64
2022/08/06 01:53:56;;;;;;;;;;;;;;;25.07;99.34;98267.63;5139867;28;19924;-64
2022/08/06 01:56:23;;;;;;;;;;;;;;;26.04;94.44;98280.69;5142646;28;19919;-64
2022/08/06 01:58:50;;;;;;;;;;;;;;;25.58;95.05;98269.44;5142600;28;19931;-64
2022/08/06 02:01:19;;;;;;;;;;;;;;;25.75;92.75;98276.47;5130591;28;19928;-64
2022/08/06 02:03:46;;;;;;;;;;;;;;;26.85;86.56;98262.59;5139067;28;19955;-64
2022/08/06 02:06:15;;;;;;;;;;;;;;;26.31;92.23;98274.31;5142118;28;19931;-64
2022/08/06 02:08:42;;;;;;;;;;;;;;;27.03;87.28;98277.44;5142466;28;19945;-65
2022/08/06 02:11:10;;;;;;;;;;;;;;;27.32;84.91;98276.84;5139641;28;19949;-65
2022/08/06 02:13:37;;;;;;;;;;;;;;;27.21;84.13;98268.41;5136885;28;19924;-64
2022/08/06 02:16:05;;;;;;;;;;;;;;;26.68;82.32;98280.22;5140356;28;19927;-64
2022/08/06 02:18:36;;;;;;;;;;;;;;;25.84;85.17;98288.06;5138805;28;19923;-65
2022/08/06 02:21:05;;;;;;;;;;;;;;;25.00;93.67;98287.38;5140678;28;19919;-65
2022/08/06 02:23:32;;;;;;;;;;;;;;;25.80;93.48;98272.69;5142285;28;20606;-64
2022/08/06 02:26:00;;;;;;;;;;;;;;;24.65;95.94;98265.28;5141684;27;19924;-66
2022/08/06 02:28:27;;;;;;;;;;;;;;;25.05;95.98;98276.19;5142621;27;19951;-65
2022/08/06 02:30:55;;;;;;;;;;;;;;;25.05;89.92;98283.59;5143230;27;19979;-64
2022/08/06 02:33:22;;;;;;;;;;;;;;;25.31;91.35;98302.25;5146168;27;19924;-65
2022/08/06 02:35:51;;;;;;;;;;;;;;;26.85;84.14;98293.53;5146104;27;19926;-65
2022/08/06 02:38:21;;;;;;;;;;;;;;;27.35;80.63;98287.06;5134585;27;19974;-64
2022/08/06 02:40:51;;;;;;;;;;;;;;;26.96;77.90;98296.47;5142473;27;19924;-65
2022/08/06 02:43:19;;;;;;;;;;;;;;;26.66;82.00;98297.03;5131704;27;19924;-65
2022/08/06 02:45:47;;;;;;;;;;;;;;;26.88;81.28;98297.50;5145645;27;19923;-65
2022/08/06 02:48:19;;;;;;;;;;;;;;;27.31;77.78;98300.72;5140487;27;19943;-64
2022/08/06 02:50:47;;;;;;;;;;;;;;;26.63;80.11;98289.53;5142478;27;19924;-64
2022/08/06 02:53:17;;;;;;;;;;;;;;;26.26;84.20;98296.50;5145697;27;19931;-64
2022/08/06 02:55:47;;;;;;;;;;;;;;;26.24;85.55;98290.59;5145203;27;20211;-65
2022/08/06 02:58:15;;;;;;;;;;;;;;;25.49;89.87;98301.63;5142492;27;20425;-65
2022/08/06 03:00:43;;;;;;;;;;;;;;;25.29;89.87;98299.88;5124104;28;19941;-64
2022/08/06 03:03:11;;;;;;;;;;;;;;;25.32;87.85;98301.09;5144886;27;19967;-64
2022/08/06 03:05:38;;;;;;;;;;;;;;;25.92;88.05;98305.44;5145661;27;19923;-64
2022/08/06 03:08:07;;;;;;;;;;;;;;;25.39;87.56;98304.84;5143355;27;19927;-65
2022/08/06 03:10:36;;;;;;;;;;;;;;;26.40;84.65;98299.56;5142037;27;19924;-65
2022/08/06 03:13:04;;;;;;;;;;;;;;;25.93;83.96;98301.56;5141607;27;19958;-65
2022/08/06 03:15:32;;;;;;;;;;;;;;;26.02;84.41;98326.81;5145335;27;19990;-64
2022/08/06 03:18:00;;;;;;;;;;;;;;;25.77;86.10;98337.13;5144273;27;19931;-64
2022/08/06 03:20:27;;;;;;;;;;;;;;;25.16;87.26;98323.72;5142027;27;19930;-64
2022/08/06 03:22:55;;;;;;;;;;;;;;;24.18;91.83;98321.53;5142332;27;20642;-64
2022/08/06 03:25:22;;;;;;;;;;;;;;;24.78;93.95;98308.94;5145332;27;19923;-65
2022/08/06 03:27:52;;;;;;;;;;;;;;;24.67;91.94;98317.59;5145364;27;19919;-66
2022/08/06 03:30:19;;;;;;;;;;;;;;;25.53;87.71;98321.63;5133397;27;19920;-65
2022/08/06 03:32:46;;;;;;;;;;;;;;;25.69;82.96;98329.88;5141769;27;19924;-65
2022/08/06 03:35:12;;;;;;;;;;;;;;;24.25;92.45;98340.88;5144886;27;19941;-64
2022/08/06 03:37:39;;;;;;;;;;;;;;;26.24;82.79;98339.88;5144763;27;19935;-64
2022/08/06 03:40:06;;;;;;;;;;;;;;;26.13;82.36;98336.06;5142642;27;19964;-66
2022/08/06 03:42:33;;;;;;;;;;;;;;;26.36;78.37;98331.56;5139268;27;19920;-64
2022/08/06 03:45:00;;;;;;;;;;;;;;;25.83;82.69;98329.44;5142662;27;20005;-64
2022/08/06 03:47:32;;;;;;;;;;;;;;;24.20;91.09;98332.13;5144909;27;19930;-65
2022/08/06 03:50:02;;;;;;;;;;;;;;;23.03;100.00;98337.03;5143605;27;19940;-64
2022/08/06 03:52:31;;;;;;;;;;;;;;;23.12;100.00;98334.22;5141309;27;19924;-64
2022/08/06 03:54:59;;;;;;;;;;;;;;;23.86;96.95;98347.75;5142329;27;19923;-64
2022/08/06 03:57:27;;;;;;;;;;;;;;;24.34;94.28;98340.75;5144681;27;19931;-64
2022/08/06 04:00:00;;;;;;;;;;;;;;;25.27;86.77;98345.09;5144089;27;19955;-65
2022/08/06 04:02:32;;;;;;;;;;;;;;;24.29;92.96;98344.53;5140950;27;19932;-64
2022/08/06 04:04:59;;;;;;;;;;;;;;;24.14;92.56;98345.19;5142133;27;19924;-64
2022/08/06 04:07:26;;;;;;;;;;;;;;;24.71;89.16;98355.94;5144526;27;19924;-65
2022/08/06 04:09:52;;;;;;;;;;;;;;;24.95;88.31;98357.84;5144092;27;19941;-65
2022/08/06 04:12:20;;;;;;;;;;;;;;;24.73;88.05;98378.25;5138568;27;19920;-64
2022/08/06 04:14:46;;;;;;;;;;;;;;;23.59;97.30;98373.72;5140879;27;19924;-65
2022/08/06 04:17:13;;;;;;;;;;;;;;;24.61;90.69;98370.88;5143931;27;19945;-64
2022/08/06 04:19:41;;;;;;;;;;;;;;;24.93;90.06;98371.88;5144246;27;19931;-66
2022/08/06 04:22:08;;;;;;;;;;;;;;;25.29;84.49;98375.63;5141694;27;19959;-65
2022/08/06 04:24:34;;;;;;;;;;;;;;;24.59;89.15;98366.91;5140598;27;19928;-66
2022/08/06 04:27:02;;;;;;;;;;;;;;;25.21;86.78;98380.09;5142019;27;19924;-65
2022/08/06 04:29:30;;;;;;;;;;;;;;;24.50;90.60;98385.34;5143945;27;19950;-64
2022/08/06 04:31:57;;;;;;;;;;;;;;;24.79;89.48;98387.03;5142994;27;19927;-65
2022/08/06 04:34:25;;;;;;;;;;;;;;;23.24;93.79;98396.94;5140307;27;19924;-66
2022/08/06 04:36:53;;;;;;;;;;;;;;;22.57;100.00;98400.59;5140492;27;19945;-65
2022/08/06 04:39:21;;;;;;;;;;;;;;;21.93;100.00;98402.66;5143744;27;19934;-63
2022/08/06 04:41:48;;;;;;;;;;;;;;;22.02;100.00;98399.91;5142107;27;19919;-65
2022/08/06 04:44:14;;;;;;;;;;;;;;;21.61;100.00;98413.25;5140327;27;19924;-66
2022/08/06 04:46:42;;;;;;;;;;;;;;;22.13;100.00;98422.13;5139899;27;19928;-64
2022/08/06 04:49:09;;;;;;;;;;;;;;;23.92;100.00;98419.28;5142141;27;19924;-64
2022/08/06 04:51:35;;;;;;;;;;;;;;;25.11;92.46;98419.66;5143581;27;19928;-65
2022/08/06 04:54:05;;;;;;;;;;;;;;;24.52;96.42;98424.00;5141788;27;19924;-65
2022/08/06 04:56:32;;;;;;;;;;;;;;;23.81;100.00;98424.34;5139929;27;19984;-66
2022/08/06 04:58:58;;;;;;;;;;;;;;;23.65;100.00;98417.91;5141088;27;19931;-65
2022/08/06 05:01:25;;;;;;;;;;;;;;;23.59;98.96;98422.00;5143288;27;19927;-64
2022/08/06 05:03:51;;;;;;;;;;;;;;;23.40;100.00;98421.69;5143124;27;20035;-64
2022/08/06 05:06:20;;;;;;;;;;;;;;;22.25;100.00;98424.94;5139713;27;19935;-65
2022/08/06 05:08:49;;;;;;;;;;;;;;;22.54;100.00;98423.03;5139572;27;19924;-65
2022/08/06 05:11:19;;;;;;;;;;;;;;;22.69;100.00;98418.97;5131232;27;20354;-65
2022/08/06 05:13:47;;;;;;;;;;;;;;;23.09;100.00;98422.06;5138793;27;19963;-64
2022/08/06 05:16:15;;;;;;;;;;;;;;;22.52;100.00;98425.31;5139830;27;19924;-65
2022/08/06 05:18:44;;;;;;;;;;;;;;;22.77;100.00;98437.19;5139423;27;19935;-65
2022/08/06 05:21:11;;;;;;;;;;;;;;;23.08;100.00;98436.84;5142426;27;19958;-65
2022/08/06 05:23:40;;;;;;;;;;;;;;;23.00;100.00;98435.75;5142972;27;19920;-64
2022/08/06 05:26:07;;;;;;;;;;;;;;;22.78;100.00;98437.97;5140572;27;19935;-65
2022/08/06 05:28:35;;;;;;;;;;;;;;;23.42;100.00;98435.78;5139417;27;20548;-65
2022/08/06 05:31:01;;;;;;;;;;;;;;;23.49;100.00;98434.09;5140829;27;19920;-65
2022/08/06 05:33:29;;;;;;;;;;;;;;;23.61;100.00;98431.44;5142914;27;19923;-64
2022/08/06 05:35:55;;;;;;;;;;;;;;;23.74;100.00;98440.44;5142176;27;19927;-65
2022/08/06 05:38:22;;;;;;;;;;;;;;;23.92;100.00;98443.81;5139286;27;19985;-66
2022/08/06 05:40:49;;;;;;;;;;;;;;;23.98;100.00;98443.28;5139130;27;19924;-66
2022/08/06 05:43:16;;;;;;;;;;;;;;;23.81;100.00;98448.09;5127932;28;19973;-65
2022/08/06 05:45:44;;;;;;;;;;;;;;;23.54;100.00;98453.00;5142794;28;19924;-65
2022/08/06 05:48:12;;;;;;;;;;;;;;;22.62;100.00;98462.25;5139920;28;19928;-65
2022/08/06 05:50:40;;;;;;;;;;;;;;;22.38;100.00;98459.28;5138942;28;19943;-65
2022/08/06 05:53:10;;;;;;;;;;;;;;;21.92;100.00;98460.88;5141507;28;19924;-64
2022/08/06 05:55:39;;;;;;;;;;;;;;;21.75;100.00;98473.69;5142664;28;19923;-65
2022/08/06 05:58:08;;;;;;;;;;;;;;;21.16;100.00;98476.09;5140457;28;19933;-66
2022/08/06 06:00:35;;;;;;;;;;;;;;;21.76;100.00;98467.91;5140790;27;19958;-64
2022/08/06 06:03:04;;;;;;;;;;;;;;;22.24;100.00;98467.69;5144660;27;19923;-66
2022/08/06 06:05:31;;;;;;;;;;;;;;;22.67;100.00;98475.69;5146631;27;19923;-65
2022/08/06 06:07:58;;;;;;;;;;;;;;;22.06;100.00;98482.47;5145612;27;19948;-65
2022/08/06 06:10:25;;;;;;;;;;;;;;;22.40;100.00;98478.81;5143064;27;19946;-64
2022/08/06 06:12:51;;;;;;;;;;;;;;;22.86;100.00;98488.88;5140813;27;19932;-65
2022/08/06 06:15:19;;;;;;;;;;;;;;;21.98;100.00;98497.66;5146506;27;19953;-65
2022/08/06 06:17:52;;;;;;;;;;;;;;;22.42;100.00;98496.44;5146642;27;20329;-65
2022/08/06 06:20:22;;;;;;;;;;;;;;;23.25;100.00;98493.94;5134884;27;19924;-67
2022/08/06 06:22:52;;;;;;;;;;;;;;;21.80;100.00;98504.22;5142972;27;19924;-66
2022/08/06 06:25:20;;;;;;;;;;;;;;;21.92;100.00;98503.59;5134959;27;19963;-64
2022/08/06 06:27:50;;;;;;;;;;;;;;;21.66;100.00;98500.06;5142889;27;19934;-64
2022/08/06 06:30:19;;;;;;;;;;;;;;;21.92;100.00;98507.09;5134564;27;20784;-64
2022/08/06 06:32:50;;;;;;;;;;;;;;;21.38;100.00;98513.97;5142888;27;19944;-64
2022/08/06 06:35:21;;;;;;;;;;;;;;;21.25;100.00;98512.22;5134479;27;19924;-65
2022/08/06 06:37:52;;;;;;;;;;;;;;;21.60;100.00;98512.22;5142705;27;19930;-64
2022/08/06 06:40:26;;;;;;;;;;;;;;;21.79;100.00;98507.25;5134372;27;19927;-64
2022/08/06 06:42:54;;;;;;;;;;;;;;;22.39;100.00;98507.97;5140551;27;19963;-64
2022/08/06 06:45:25;;;;;;;;;;;;;;;22.67;100.00;98502.91;5145532;27;19923;-65
2022/08/06 06:47:55;;;;;;;;;;;;;;;22.71;100.00;98503.88;5145533;27;19991;-65
2022/08/06 06:50:25;;;;;;;;;;;;;;;23.61;100.00;98505.06;5142245;27;19963;-64
2022/08/06 06:52:54;;;;;;;;;;;;;;;22.44;100.00;98532.28;5142382;27;19937;-64
2022/08/06 06:55:24;;;;;;;;;;;;;;;21.61;100.00;98530.94;5145705;27;19923;-64
2022/08/06 06:57:52;;;;;;;;;;;;;;;21.82;100.00;98525.63;5145900;27;19928;-65
2022/08/06 07:00:19;;;;;;;;;;;;;;;21.84;100.00;98528.84;5134126;27;19946;-65
2022/08/06 07:02:48;;;;;;;;;;;;;;;22.08;100.00;98534.59;5141894;27;19949;-65
2022/08/06 07:05:16;;;;;;;;;;;;;;;22.62;100.00;98538.47;5145404;27;19959;-65
2022/08/06 07:07:43;;;;;;;;;;;;;;;22.70;100.00;98524.03;5145491;27;19931;-64
2022/08/06 07:10:12;;;;;;;;;;;;;;;21.89;100.00;98547.75;5142676;27;19930;-65
2022/08/06 07:12:40;;;;;;;;;;;;;;;21.93;100.00;98530.47;5138825;27;19927;-64
2022/08/06 07:15:07;;;;;;;;;;;;;;;22.01;100.00;98534.28;5144255;27;19950;-66
2022/08/06 07:17:34;;;;;;;;;;;;;;;22.86;100.00;98529.75;5145302;27;19923;-64
2022/08/06 07:20:02;;;;;;;;;;;;;;;21.92;100.00;98533.50;5143988;27;19927;-64
2022/08/06 07:22:30;;;;;;;;;;;;;;;21.75;100.00;98536.22;5141859;27;19945;-64
2022/08/06 07:25:01;;;;;;;;;;;;;;;21.87;100.00;98533.66;5142801;27;19930;-65
2022/08/06 07:27:34;;;;;;;;;;;;;;;21.20;100.00;98531.34;5145388;27;19951;-65
2022/08/06 07:30:01;;;;;;;;;;;;;;;21.05;100.00;98539.91;5143879;27;19931;-65
2022/08/06 07:32:29;;;;;;;;;;;;;;;20.75;100.00;98541.59;5141599;27;19949;-65
2022/08/06 07:34:55;;;;;;;;;;;;;;;20.88;100.00;98537.16;5142245;27;19983;-65
2022/08/06 07:37:23;;;;;;;;;;;;;;;21.20;100.00;98547.66;5145183;27;19945;-65
2022/08/06 07:39:51;;;;;;;;;;;;;;;21.18;100.00;98549.09;5145302;27;19927;-64
2022/08/06 07:42:18;;;;;;;;;;;;;;;21.88;100.00;98557.00;5131027;27;19928;-64
2022/08/06 07:44:49;;;;;;;;;;;;;;;21.13;100.00;98546.53;5141265;27;19959;-65
2022/08/06 07:47:19;;;;;;;;;;;;;;;21.05;100.00;98558.13;5144911;27;20011;-64
2022/08/06 07:49:49;;;;;;;;;;;;;;;21.56;100.00;98563.72;5144770;27;19924;-64
2022/08/06 07:52:16;;;;;;;;;;;;;;;21.07;100.00;98561.34;5141071;27;19923;-65
2022/08/06 07:54:43;;;;;;;;;;;;;;;21.65;100.00;98566.44;5141228;27;19950;-65
2022/08/06 07:57:11;;;;;;;;;;;;;;;20.83;100.00;98567.16;5143754;27;19927;-64
2022/08/06 07:59:37;;;;;;;;;;;;;;;20.87;100.00;98577.09;5144704;27;19942;-65
2022/08/06 08:02:05;;;;;;;;;;;;;;;20.58;100.00;98573.28;5142584;27;19965;-64
2022/08/06 08:07:16;;;;;;;;;;;;;;;21.83;100.00;98582.44;5132507;27;19931;-65
2022/08/06 08:09:43;;;;;;;;;;;;;;;22.33;100.00;98590.91;5140860;27;19924;-65
2022/08/06 08:12:12;;;;;;;;;;;;;;;21.22;100.00;98580.75;5140777;27;19946;-65
2022/08/06 08:14:40;;;;;;;;;;;;;;;20.89;100.00;98584.91;5140807;27;19967;-65
2022/08/06 08:17:08;;;;;;;;;;;;;;;21.17;100.00;98594.47;5142703;27;19962;-64
2022/08/06 08:19:34;;;;;;;;;;;;;;;21.25;100.00;98585.56;5144114;27;19945;-64
2022/08/06 08:22:02;;;;;;;;;;;;;;;21.18;100.00;98590.66;5142684;27;20390;-65
2022/08/06 08:24:31;;;;;;;;;;;;;;;21.36;100.00;98595.00;5139263;27;19945;-65
2022/08/06 08:26:58;;;;;;;;;;;;;;;22.04;100.00;98599.72;5141435;27;19947;-65
2022/08/06 08:29:24;;;;;;;;;;;;;;;21.76;100.00;98608.47;5143989;27;19924;-64
2022/08/06 08:31:51;;;;;;;;;;;;;;;21.52;100.00;98598.88;5143749;27;19953;-65
2022/08/06 08:34:18;;;;;;;;;;;;;;;22.26;100.00;98611.56;5132094;27;19955;-64
2022/08/06 08:36:45;;;;;;;;;;;;;;;21.48;100.00;98616.91;5140178;27;19924;-64
2022/08/06 08:39:11;;;;;;;;;;;;;;;21.74;100.00;98616.97;5143178;27;19928;-65
2022/08/06 08:41:40;;;;;;;;;;;;;;;21.81;100.00;98614.59;5143279;27;19926;-64
2022/08/06 08:44:07;;;;;;;;;;;;;;;22.25;100.00;98610.75;5139963;27;19946;-66
2022/08/06 08:46:34;;;;;;;;;;;;;;;21.48;100.00;98616.91;5121758;28;19920;-64
2022/08/06 08:49:02;;;;;;;;;;;;;;;21.04;100.00;98614.38;5141366;27;19924;-65
2022/08/06 08:51:31;;;;;;;;;;;;;;;21.00;100.00;98613.41;5143530;27;19932;-65
2022/08/06 08:54:00;;;;;;;;;;;;;;;21.48;100.00;98614.22;5142507;27;19955;-65
2022/08/06 08:56:26;;;;;;;;;;;;;;;22.27;100.00;98616.69;5140114;27;19928;-64
2022/08/06 08:58:53;;;;;;;;;;;;;;;21.69;100.00;98619.84;5140145;27;19920;-65
2022/08/06 09:01:20;;;;;;;;;;;;;;;22.17;100.00;98619.72;5143465;27;19946;-65
2022/08/06 09:03:46;;;;;;;;;;;;;;;21.94;100.00;98627.25;5143469;27;19923;-66
2022/08/06 09:06:13;;;;;;;;;;;;;;;22.02;100.00;98622.94;5140155;27;19927;-66
2022/08/06 09:08:41;;;;;;;;;;;;;;;21.95;100.00;98617.16;5139601;27;19924;-66
2022/08/06 09:11:08;;;;;;;;;;;;;;;21.86;100.00;98628.00;5141937;27;20223;-65
2022/08/06 09:13:34;;;;;;;;;;;;;;;22.25;100.00;98623.56;5140817;27;20574;-65
2022/08/06 09:16:01;;;;;;;;;;;;;;;21.96;100.00;98624.22;5141816;27;19945;-64
2022/08/06 09:18:28;;;;;;;;;;;;;;;22.04;100.00;98618.78;5139554;27;20028;-65
2022/08/06 09:20:55;;;;;;;;;;;;;;;21.87;100.00;98617.94;5140109;27;19964;-65
2022/08/06 09:23:21;;;;;;;;;;;;;;;22.19;100.00;98628.34;5143119;27;19923;-64
2022/08/06 09:25:50;;;;;;;;;;;;;;;21.86;100.00;98630.75;5143155;27;19925;-65
2022/08/06 09:28:35;;;;;;;;;;;;;;;21.02;100.00;98630.16;5131033;27;19924;-64
2022/08/06 09:31:02;;;;;;;;;;;;;;;21.34;100.00;98627.13;5140657;27;19924;-64
2022/08/06 09:33:30;;;;;;;;;;;;;;;20.95;100.00;98632.56;5142854;27;19938;-65
2022/08/06 09:36:01;;;;;;;;;;;;;;;21.19;100.00;98627.56;5141690;27;19924;-64
2022/08/06 09:38:28;;;;;;;;;;;;;;;22.19;100.00;98633.78;5139207;27;19931;-65
2022/08/06 09:41:06;;;;;;;;;;;;;;;23.27;98.35;98632.59;5139766;27;19955;-64
2022/08/06 09:43:33;;;;;;;;;;;;;;;22.22;100.00;98633.16;5140363;27;19941;-65
2022/08/06 09:46:00;;;;;;;;;;;;;;;22.99;100.00;98634.97;5141042;28;20763;-65
2022/08/06 09:48:26;;;;;;;;;;;;;;;22.18;100.00;98640.38;5139079;28;19991;-64
2022/08/06 09:50:52;;;;;;;;;;;;;;;22.41;100.00;98638.25;5139260;28;19920;-64
2022/08/06 09:53:21;;;;;;;;;;;;;;;22.36;100.00;98641.16;5142650;28;19924;-65
2022/08/06 09:55:47;;;;;;;;;;;;;;;23.70;94.85;98637.84;5142663;28;19934;-65
2022/08/06 09:58:26;;;;;;;;;;;;;;;24.59;87.26;98634.53;5139516;28;19970;-64
2022/08/06 10:00:52;;;;;;;;;;;;;;;24.59;86.11;98632.59;5139363;28;19935;-65
2022/08/06 10:03:19;;;;;;;;;;;;;;;24.85;83.54;98618.69;5142736;28;19923;-65
2022/08/06 10:05:45;;;;;;;;;;;;;;;24.19;87.78;98634.28;5124522;28;19924;-64
2022/08/06 10:08:13;;;;;;;;;;;;;;;23.64;92.05;98623.59;5139742;28;20396;-64
2022/08/06 10:10:47;;;;;;;;;;;;;;;23.39;93.42;98619.91;5138878;28;19927;-65
2022/08/06 10:13:16;;;;;;;;;;;;;;;22.82;98.59;98630.38;5139767;28;19981;-64
2022/08/06 10:15:44;;;;;;;;;;;;;;;22.95;97.90;98634.00;5142245;28;19959;-65
2022/08/06 10:18:11;;;;;;;;;;;;;;;23.71;94.21;98628.50;5139584;28;19934;-65
2022/08/06 10:20:37;;;;;;;;;;;;;;;24.96;84.69;98621.78;5138762;28;19927;-65
2022/08/06 10:23:09;;;;;;;;;;;;;;;24.83;83.70;98625.63;5140345;28;19931;-66
2022/08/06 10:25:36;;;;;;;;;;;;;;;24.55;86.26;98626.22;5142158;28;19966;-64
2022/08/06 10:28:03;;;;;;;;;;;;;;;23.67;91.10;98622.13;5140652;28;19920;-66
2022/08/06 10:30:30;;;;;;;;;;;;;;;24.07;89.63;98626.00;5138299;28;19952;-65
2022/08/06 10:33:01;;;;;;;;;;;;;;;24.91;84.58;98614.63;5139358;28;19923;-64
2022/08/06 10:35:27;;;;;;;;;;;;;;;23.87;88.75;98622.13;5142111;28;19941;-65
2022/08/06 10:37:57;;;;;;;;;;;;;;;24.09;88.80;98616.34;5141658;28;19923;-66
2022/08/06 10:40:23;;;;;;;;;;;;;;;24.30;85.13;98619.06;5138513;28;19997;-65
2022/08/06 10:42:50;;;;;;;;;;;;;;;23.99;84.49;98622.19;5136153;28;19928;-64
2022/08/06 10:45:16;;;;;;;;;;;;;;;23.75;86.75;98622.06;5129916;28;19924;-65
2022/08/06 10:47:45;;;;;;;;;;;;;;;23.40;90.61;98620.69;5140610;27;19928;-66
2022/08/06 10:50:13;;;;;;;;;;;;;;;23.35;90.54;98615.38;5145215;27;19924;-64
2022/08/06 10:52:40;;;;;;;;;;;;;;;23.67;88.87;98627.59;5145838;27;19972;-63
2022/08/06 10:55:07;;;;;;;;;;;;;;;24.08;85.45;98622.94;5143544;27;19954;-64
2022/08/06 10:57:34;;;;;;;;;;;;;;;24.12;83.93;98621.16;5142103;27;19952;-64
2022/08/06 11:00:01;;;;;;;;;;;;;;;25.03;81.46;98622.03;5143439;27;20402;-64
2022/08/06 11:02:33;;;;;;;;;;;;;;;24.46;79.98;98622.78;5145695;27;19954;-65
2022/08/06 11:05:01;;;;;;;;;;;;;;;23.67;85.35;98624.84;5144721;27;19924;-64
2022/08/06 11:07:43;;;;;;;;;;;;;;;23.48;87.59;98617.91;5142291;27;19953;-65
2022/08/06 11:10:19;;;;;;;;;;;;;;;24.08;84.84;98617.47;5144579;27;19924;-64
2022/08/06 11:12:49;;;;;;;;;;;;;;;24.30;83.26;98613.63;5137576;27;19923;-65
2022/08/06 11:15:15;;;;;;;;;;;;;;;24.21;82.99;98623.81;5145267;27;19974;-65
2022/08/06 11:17:43;;;;;;;;;;;;;;;23.53;86.89;98603.28;5145290;27;19966;-64
2022/08/06 11:20:31;;;;;;;;;;;;;;;24.13;84.00;98611.84;5142664;27;19957;-65
2022/08/06 11:22:57;;;;;;;;;;;;;;;24.09;84.75;98610.09;5142503;27;19974;-65
2022/08/06 11:25:38;;;;;;;;;;;;;;;24.67;82.00;98598.13;5145291;27;19920;-66
2022/08/06 11:28:04;;;;;;;;;;;;;;;24.41;77.71;98603.88;5143560;27;20014;-64
2022/08/06 11:30:37;;;;;;;;;;;;;;;24.32;80.32;98611.38;5141586;27;19954;-65
2022/08/06 11:33:03;;;;;;;;;;;;;;;24.03;82.67;98597.78;5143325;27;19924;-64
2022/08/06 11:35:41;;;;;;;;;;;;;;;23.86;84.29;98595.19;5144991;27;19956;-65
2022/08/06 11:38:08;;;;;;;;;;;;;;;24.42;81.58;98593.75;5141704;27;19946;-64
2022/08/06 11:40:54;;;;;;;;;;;;;;;24.84;79.45;98589.78;5141501;27;19923;-65
2022/08/06 11:43:36;;;;;;;;;;;;;;;24.61;77.70;98597.56;5131494;27;19987;-65
2022/08/06 11:46:18;;;;;;;;;;;;;;;25.09;76.48;98596.88;5143090;27;19953;-65
2022/08/06 11:48:59;;;;;;;;;;;;;;;24.84;71.80;98588.97;5141486;27;19950;-64
2022/08/06 11:51:40;;;;;;;;;;;;;;;24.87;74.67;98583.63;5133912;27;19927;-64
2022/08/06 11:54:11;;;;;;;;;;;;;;;25.46;71.25;98578.50;5143212;27;19924;-66
2022/08/06 11:56:57;;;;;;;;;;;;;;;25.26;72.17;98582.16;5144709;27;19950;-65
2022/08/06 11:59:23;;;;;;;;;;;;;;;25.29;70.46;98578.72;5133318;27;20552;-66
2022/08/06 12:01:50;;;;;;;;;;;;;;;24.90;70.91;98580.22;5141075;27;19923;-65
2022/08/06 12:04:35;;;;;;;;;;;;;;;24.84;72.33;98584.31;5132593;27;19923;-64
2022/08/06 12:07:16;;;;;;;;;;;;;;;24.67;72.13;98581.75;5142417;27;19950;-65
2022/08/06 12:09:42;;;;;;;;;;;;;;;25.52;70.92;98579.88;5144372;27;19935;-65
2022/08/06 12:12:28;;;;;;;;;;;;;;;25.04;72.49;98575.22;5139340;27;19931;-64
2022/08/06 12:14:55;;;;;;;;;;;;;;;25.22;70.75;98573.06;5141081;27;19930;-64
2022/08/06 12:17:22;;;;;;;;;;;;;;;25.44;67.36;98572.56;5144404;27;19962;-64
2022/08/06 12:19:51;;;;;;;;;;;;;;;25.66;67.32;98574.03;5144209;27;19945;-63
2022/08/06 12:22:20;;;;;;;;;;;;;;;25.29;67.40;98581.47;5132423;27;19924;-64
2022/08/06 12:24:47;;;;;;;;;;;;;;;24.81;70.59;98573.25;5140586;27;19946;-69
2022/08/06 12:27:13;;;;;;;;;;;;;;;24.65;72.78;98579.38;5143879;27;19930;-64
2022/08/06 12:29:40;;;;;;;;;;;;;;;24.58;73.93;98579.13;5144140;27;19923;-64
2022/08/06 12:32:20;;;;;;;;;;;;;;;25.02;71.21;98573.97;5141927;27;19923;-64
2022/08/06 12:34:47;;;;;;;;;;;;;;;25.24;69.36;98576.25;5140518;27;19928;-64
2022/08/06 12:37:13;;;;;;;;;;;;;;;24.09;71.03;98569.16;5143446;27;19924;-65
2022/08/06 12:42:26;;;;;;;;;;;;;;;24.75;70.48;98569.13;5130608;27;19924;-64
2022/08/06 12:44:53;;;;;;;;;;;;;;;24.56;69.92;98572.41;5140191;27;19928;-64
2022/08/06 12:47:20;;;;;;;;;;;;;;;24.61;69.59;98567.50;5143774;27;19924;-65
2022/08/06 12:49:46;;;;;;;;;;;;;;;24.45;69.87;98561.09;5143871;27;19924;-63
2022/08/06 12:52:13;;;;;;;;;;;;;;;24.23;69.34;98571.63;5140859;27;20010;-64
2022/08/06 12:54:41;;;;;;;;;;;;;;;24.30;70.59;98569.13;5140121;27;19924;-63
2022/08/06 12:57:07;;;;;;;;;;;;;;;24.50;68.55;98560.91;5142367;27;19920;-64